Time;durP1;ratioP1;P1;durP2;ratioP2;P2;SDS_P1;SDS_P2;PMS_P1;PMS_P2;Temp;Humidity;BMP_temperature;BMP_pressure;BME280_temperature;BME280_humidity;BME280_pressure;Samples;Min_cycle;Max_cycle;Signal;HPM_P1;HPM_P2
2022/05/26 00:01:24;;;;;;;;;;;;;;;16.09;66.02;99839.09;4363198;32;33751;-84
2022/05/26 00:03:54;;;;;;;;;;;;;;;15.77;67.30;99840.97;4357570;32;34881;-82
2022/05/26 00:06:23;;;;;;;;;;;;;;;15.78;67.01;99840.06;4357598;32;33827;-83
2022/05/26 00:08:52;;;;;;;;;;;;;;;16.05;66.34;99845.31;4357946;32;33901;-83
2022/05/26 00:11:22;;;;;;;;;;;;;;;16.17;65.90;99842.28;4357798;32;34593;-83
2022/05/26 00:13:50;;;;;;;;;;;;;;;16.04;65.95;99843.59;4363491;32;33860;-85
2022/05/26 00:16:19;;;;;;;;;;;;;;;16.01;66.34;99848.94;4357840;32;34048;-82
2022/05/26 00:18:48;;;;;;;;;;;;;;;16.19;65.33;99858.78;4358116;32;34282;-82
2022/05/26 00:21:18;;;;;;;;;;;;;;;16.00;66.18;99855.09;4357597;32;34147;-83
2022/05/26 00:23:47;;;;;;;;;;;;;;;16.03;66.06;99852.34;4350838;32;34240;-84
2022/05/26 00:26:15;;;;;;;;;;;;;;;16.12;65.60;99856.44;4362978;32;33350;-83
2022/05/26 00:28:44;;;;;;;;;;;;;;;16.27;65.00;99868.16;4357650;32;34115;-82
2022/05/26 00:31:12;;;;;;;;;;;;;;;16.01;65.99;99867.25;4356701;32;34050;-82
2022/05/26 00:33:41;;;;;;;;;;;;;;;16.14;65.42;99865.94;4355144;32;33483;-82
2022/05/26 00:36:11;;;;;;;;;;;;;;;15.97;65.33;99863.87;4357609;32;32912;-83
2022/05/26 00:38:41;;;;;;;;;;;;;;;16.08;65.35;99866.16;4363226;32;35291;-82
2022/05/26 00:41:10;;;;;;;;;;;;;;;15.79;65.90;99873.16;4356024;32;35307;-83
2022/05/26 00:43:41;;;;;;;;;;;;;;;15.57;66.67;99878.19;4350476;32;34548;-82
2022/05/26 00:46:14;;;;;;;;;;;;;;;15.77;66.11;99879.34;4357404;32;32050;-83
2022/05/26 00:48:44;;;;;;;;;;;;;;;15.77;65.81;99880.19;4357161;32;34240;-83
2022/05/26 00:51:15;;;;;;;;;;;;;;;15.78;65.72;99879.31;4342321;33;33824;-83
2022/05/26 00:53:49;;;;;;;;;;;;;;;15.91;64.98;99878.94;4348318;33;33870;-83
2022/05/26 00:56:18;;;;;;;;;;;;;;;15.67;65.94;99881.38;4345059;32;33082;-83
2022/05/26 00:58:47;;;;;;;;;;;;;;;15.60;66.10;99882.47;4343232;32;33955;-82
2022/05/26 01:01:15;;;;;;;;;;;;;;;15.79;65.26;99883.62;4342473;33;34891;-82
2022/05/26 01:03:46;;;;;;;;;;;;;;;15.46;66.09;99892.47;4342432;33;34401;-83
2022/05/26 01:06:15;;;;;;;;;;;;;;;15.71;65.27;99890.03;4351962;32;34038;-83
2022/05/26 01:08:45;;;;;;;;;;;;;;;15.75;64.96;99883.78;4357388;32;33926;-85
2022/05/26 01:11:15;;;;;;;;;;;;;;;15.45;66.29;99896.00;4348209;32;34995;-83
2022/05/26 01:13:44;;;;;;;;;;;;;;;15.56;65.78;99891.31;4344831;32;33273;-84
2022/05/26 01:16:15;;;;;;;;;;;;;;;15.79;65.02;99898.47;4356370;32;33341;-83
2022/05/26 01:18:45;;;;;;;;;;;;;;;15.51;65.46;99898.44;4363091;32;34206;-83
2022/05/26 01:21:14;;;;;;;;;;;;;;;15.20;66.11;99888.91;4357238;32;34251;-82
2022/05/26 01:24:08;;;;;;;;;;;;;;;15.43;65.93;99887.34;4357066;32;34984;-82
2022/05/26 01:27:00;;;;;;;;;;;;;;;14.89;67.30;99887.16;4355984;32;32086;-83
2022/05/26 01:29:51;;;;;;;;;;;;;;;15.27;66.04;99892.16;4346777;32;33751;-83
2022/05/26 01:32:24;;;;;;;;;;;;;;;15.16;66.78;99884.66;4352449;32;33803;-82
2022/05/26 01:34:54;;;;;;;;;;;;;;;14.93;67.44;99878.34;4356726;32;33705;-83
2022/05/26 01:37:24;;;;;;;;;;;;;;;15.46;65.64;99882.88;4360547;32;34088;-83
2022/05/26 01:39:54;;;;;;;;;;;;;;;15.34;65.78;99888.47;4362710;32;34303;-84
2022/05/26 01:42:23;;;;;;;;;;;;;;;15.20;65.89;99888.00;4357098;32;34727;-84
2022/05/26 01:44:53;;;;;;;;;;;;;;;15.03;66.54;99886.75;4357184;32;34192;-83
2022/05/26 01:47:35;;;;;;;;;;;;;;;14.87;66.78;99894.16;4357060;32;32528;-83
2022/05/26 01:50:04;;;;;;;;;;;;;;;15.20;65.19;99895.84;4344988;32;33927;-82
2022/05/26 01:52:35;;;;;;;;;;;;;;;14.91;66.17;99895.81;4347695;33;34606;-82
2022/05/26 01:55:06;;;;;;;;;;;;;;;15.12;65.67;99909.16;4342150;33;34468;-83
2022/05/26 01:57:37;;;;;;;;;;;;;;;15.01;65.93;99906.84;4348095;32;34143;-82
2022/05/26 02:00:07;;;;;;;;;;;;;;;15.21;65.60;99915.88;4357016;32;33381;-83
2022/05/26 02:02:39;;;;;;;;;;;;;;;15.04;65.98;99911.97;4355325;32;34668;-82
2022/05/26 02:05:12;;;;;;;;;;;;;;;15.04;66.14;99914.59;4357040;32;33798;-82
2022/05/26 02:07:42;;;;;;;;;;;;;;;15.11;66.16;99913.53;4362362;32;32947;-82
2022/05/26 02:10:12;;;;;;;;;;;;;;;15.03;66.42;99920.72;4354707;32;33457;-83
2022/05/26 02:12:42;;;;;;;;;;;;;;;15.04;66.45;99924.19;4340711;33;34164;-83
2022/05/26 02:15:13;;;;;;;;;;;;;;;14.97;66.68;99922.66;4349049;32;34692;-82
2022/05/26 02:17:43;;;;;;;;;;;;;;;14.78;67.39;99924.91;4355041;32;32646;-83
2022/05/26 02:20:13;;;;;;;;;;;;;;;14.59;68.35;99927.13;4359176;32;34099;-82
2022/05/26 02:22:43;;;;;;;;;;;;;;;15.09;66.62;99927.53;4355550;32;34003;-82
2022/05/26 02:25:14;;;;;;;;;;;;;;;15.07;66.59;99934.56;4353548;32;33192;-84
2022/05/26 02:27:42;;;;;;;;;;;;;;;14.75;67.66;99935.44;4354280;32;33353;-85
2022/05/26 02:30:12;;;;;;;;;;;;;;;14.64;68.24;99930.47;4359915;32;34516;-83
2022/05/26 02:32:41;;;;;;;;;;;;;;;14.60;68.50;99929.72;4358831;32;33861;-85
2022/05/26 02:35:12;;;;;;;;;;;;;;;14.48;69.22;99937.81;4353841;32;34625;-82
2022/05/26 02:37:41;;;;;;;;;;;;;;;14.29;69.71;99933.06;4356026;32;33061;-82
2022/05/26 02:40:10;;;;;;;;;;;;;;;14.47;69.58;99936.09;4356640;32;33433;-82
2022/05/26 02:42:40;;;;;;;;;;;;;;;14.55;69.21;99930.75;4358370;32;33869;-83
2022/05/26 02:45:09;;;;;;;;;;;;;;;14.33;70.32;99940.78;4346841;32;34118;-82
2022/05/26 02:47:41;;;;;;;;;;;;;;;14.27;70.68;99941.81;4353838;32;33359;-85
2022/05/26 02:50:16;;;;;;;;;;;;;;;14.38;70.57;99947.63;4339301;33;33922;-83
2022/05/26 02:52:47;;;;;;;;;;;;;;;14.54;69.92;99947.28;4340764;33;34377;-83
2022/05/26 02:55:18;;;;;;;;;;;;;;;14.69;69.19;99942.53;4347115;33;33654;-83
2022/05/26 02:57:54;;;;;;;;;;;;;;;14.68;69.17;99945.16;4341745;33;34122;-85
2022/05/26 03:00:24;;;;;;;;;;;;;;;14.66;69.18;99941.75;4341760;32;33968;-83
2022/05/26 03:02:54;;;;;;;;;;;;;;;14.56;69.51;99940.28;4341722;32;34142;-83
2022/05/26 03:05:26;;;;;;;;;;;;;;;14.47;69.77;99936.97;4346111;32;33654;-82
2022/05/26 03:07:55;;;;;;;;;;;;;;;14.51;69.60;99938.59;4361970;32;33390;-82
2022/05/26 03:10:24;;;;;;;;;;;;;;;14.45;69.78;99948.34;4352582;32;34097;-83
2022/05/26 03:12:54;;;;;;;;;;;;;;;14.68;68.84;99950.41;4341420;33;34272;-84
2022/05/26 03:15:22;;;;;;;;;;;;;;;14.68;68.80;99950.41;4341190;33;34418;-83
2022/05/26 03:17:51;;;;;;;;;;;;;;;14.58;68.69;99955.00;4341707;32;33297;-83
2022/05/26 03:20:19;;;;;;;;;;;;;;;14.85;67.26;99953.41;4361705;32;34906;-83
2022/05/26 03:22:50;;;;;;;;;;;;;;;14.62;68.45;99961.88;4356193;32;35021;-83
2022/05/26 03:25:19;;;;;;;;;;;;;;;14.70;67.90;99972.97;4347270;32;34861;-82
2022/05/26 03:27:47;;;;;;;;;;;;;;;14.80;67.40;99973.56;4341369;33;33901;-83
2022/05/26 03:30:16;;;;;;;;;;;;;;;14.93;66.79;99977.59;4340867;33;33887;-82
2022/05/26 03:32:46;;;;;;;;;;;;;;;14.98;66.57;99987.94;4341241;33;34716;-83
2022/05/26 03:40:55;;;;;;;;;;;;;;;14.88;66.96;99987.31;4344234;32;34851;-83
2022/05/26 03:43:34;;;;;;;;;;;;;;;14.81;67.42;99995.31;4341109;33;35016;-83
2022/05/26 03:46:02;;;;;;;;;;;;;;;14.83;67.45;99990.94;4340990;33;33713;-83
2022/05/26 03:48:31;;;;;;;;;;;;;;;14.89;67.39;99989.00;4340797;32;33072;-83
2022/05/26 03:51:00;;;;;;;;;;;;;;;14.68;68.28;99989.56;4346346;33;33768;-82
2022/05/26 03:53:30;;;;;;;;;;;;;;;14.80;68.13;99991.84;4340789;33;34280;-82
2022/05/26 03:55:58;;;;;;;;;;;;;;;14.68;68.60;99992.19;4343072;32;33019;-82
2022/05/26 03:58:29;;;;;;;;;;;;;;;14.64;69.20;99995.75;4355331;32;33414;-83
2022/05/26 04:01:01;;;;;;;;;;;;;;;14.75;69.26;99998.97;4355456;32;32975;-83
2022/05/26 04:03:30;;;;;;;;;;;;;;;14.69;68.94;100001.72;4355034;32;34267;-82
2022/05/26 04:05:58;;;;;;;;;;;;;;;14.69;69.26;100004.31;4351764;32;34875;-82
2022/05/26 04:08:27;;;;;;;;;;;;;;;14.69;69.38;100004.31;4344237;33;33351;-84
2022/05/26 04:10:57;;;;;;;;;;;;;;;14.89;68.89;100016.91;4349736;32;34558;-83
2022/05/26 04:13:25;;;;;;;;;;;;;;;15.09;68.17;100016.37;4354901;32;34297;-84
2022/05/26 04:15:54;;;;;;;;;;;;;;;15.22;68.03;100027.34;4347724;32;33659;-83
2022/05/26 04:18:23;;;;;;;;;;;;;;;15.02;68.53;100028.72;4363314;32;34041;-82
2022/05/26 04:20:52;;;;;;;;;;;;;;;15.08;68.78;100035.56;4357707;32;33984;-83
2022/05/26 04:23:20;;;;;;;;;;;;;;;15.13;68.60;100029.31;4357577;32;33888;-83
2022/05/26 04:25:49;;;;;;;;;;;;;;;15.29;67.75;100032.34;4357726;32;34070;-84
2022/05/26 04:28:19;;;;;;;;;;;;;;;15.57;66.45;100042.06;4357406;32;33509;-83
2022/05/26 04:30:47;;;;;;;;;;;;;;;15.65;66.31;100029.63;4362920;32;33991;-83
2022/05/26 04:33:16;;;;;;;;;;;;;;;15.83;65.56;100038.75;4357535;32;34249;-83
2022/05/26 04:35:44;;;;;;;;;;;;;;;16.12;64.54;100043.13;4357628;32;34260;-83
2022/05/26 04:38:13;;;;;;;;;;;;;;;16.68;62.55;100041.38;4357758;32;34063;-85
2022/05/26 04:40:43;;;;;;;;;;;;;;;16.51;63.26;100042.78;4357553;32;35030;-84
2022/05/26 04:43:12;;;;;;;;;;;;;;;17.08;60.75;100040.91;4362935;32;34333;-84
2022/05/26 04:45:42;;;;;;;;;;;;;;;17.36;60.04;100038.19;4357509;32;34577;-83
2022/05/26 04:48:10;;;;;;;;;;;;;;;18.01;57.94;100044.59;4357561;32;32351;-84
2022/05/26 04:50:39;;;;;;;;;;;;;;;19.18;54.82;100051.28;4357666;32;34338;-84
2022/05/26 04:53:08;;;;;;;;;;;;;;;19.50;53.80;100051.66;4357621;32;34950;-84
2022/05/26 04:55:37;;;;;;;;;;;;;;;20.08;51.96;100050.81;4356041;32;33953;-84
2022/05/26 04:58:05;;;;;;;;;;;;;;;19.72;52.09;100050.72;4329250;33;32866;-83
2022/05/26 05:00:34;;;;;;;;;;;;;;;19.92;51.38;100055.06;4342152;33;33941;-84
2022/05/26 05:03:04;;;;;;;;;;;;;;;19.71;51.92;100063.00;4342221;33;34226;-83
2022/05/26 05:05:33;;;;;;;;;;;;;;;19.98;50.97;100066.19;4353959;32;34182;-84
2022/05/26 05:08:01;;;;;;;;;;;;;;;19.72;52.03;100074.41;4358546;32;32716;-84
2022/05/26 05:10:30;;;;;;;;;;;;;;;20.34;50.60;100081.16;4358311;32;34517;-84
2022/05/26 05:12:59;;;;;;;;;;;;;;;20.48;50.04;100080.53;4342256;33;34270;-84
2022/05/26 05:15:29;;;;;;;;;;;;;;;20.34;50.31;100073.25;4342235;33;34845;-84
2022/05/26 05:17:58;;;;;;;;;;;;;;;20.67;49.58;100076.09;4342082;33;33353;-84
2022/05/26 05:20:28;;;;;;;;;;;;;;;19.97;50.83;100080.25;4342414;33;33812;-83
2022/05/26 05:22:57;;;;;;;;;;;;;;;19.43;52.33;100087.03;4360871;32;34940;-84
2022/05/26 05:25:28;;;;;;;;;;;;;;;19.16;52.94;100087.31;4342822;32;33930;-86
2022/05/26 05:27:57;;;;;;;;;;;;;;;19.22;53.49;100090.59;4354463;32;33949;-84
2022/05/26 05:30:26;;;;;;;;;;;;;;;18.88;54.16;100090.22;4357491;32;34719;-85
2022/05/26 05:32:56;;;;;;;;;;;;;;;18.96;54.24;100092.53;4352986;32;34352;-84
2022/05/26 05:35:26;;;;;;;;;;;;;;;19.04;54.12;100103.59;4357955;32;34943;-84
2022/05/26 05:37:56;;;;;;;;;;;;;;;18.70;54.29;100111.94;4354551;32;32970;-85
2022/05/26 05:40:25;;;;;;;;;;;;;;;18.84;54.30;100108.81;4352913;32;34762;-84
2022/05/26 05:43:00;;;;;;;;;;;;;;;18.85;53.90;100107.91;4354464;32;35105;-84
2022/05/26 05:45:29;;;;;;;;;;;;;;;19.22;53.86;100117.75;4346858;32;34661;-84
2022/05/26 05:47:58;;;;;;;;;;;;;;;19.30;53.11;100120.03;4351620;32;33447;-84
2022/05/26 05:50:26;;;;;;;;;;;;;;;19.14;53.96;100115.44;4356839;32;34800;-84
2022/05/26 05:52:57;;;;;;;;;;;;;;;19.39;52.64;100119.66;4350179;32;35456;-84
2022/05/26 05:55:25;;;;;;;;;;;;;;;19.42;52.66;100121.31;4346969;32;33557;-85
2022/05/26 05:57:54;;;;;;;;;;;;;;;19.46;51.06;100117.63;4351316;32;32766;-84
2022/05/26 06:00:22;;;;;;;;;;;;;;;19.50;51.76;100112.16;4359549;32;33675;-84
2022/05/26 06:02:57;;;;;;;;;;;;;;;19.45;51.58;100106.25;4347624;32;34337;-84
2022/05/26 06:05:26;;;;;;;;;;;;;;;19.38;52.03;100107.44;4343854;32;33684;-84
2022/05/26 06:07:54;;;;;;;;;;;;;;;19.34;51.63;100111.97;4350003;32;34206;-84
2022/05/26 06:10:25;;;;;;;;;;;;;;;19.17;52.61;100117.09;4353901;32;34048;-84
2022/05/26 06:12:53;;;;;;;;;;;;;;;19.63;51.17;100112.47;4355141;32;35355;-85
2022/05/26 06:15:22;;;;;;;;;;;;;;;19.55;51.07;100123.34;4358536;32;34199;-84
2022/05/26 06:17:51;;;;;;;;;;;;;;;19.43;51.78;100125.66;4349275;32;33820;-85
2022/05/26 06:20:19;;;;;;;;;;;;;;;19.72;50.84;100127.91;4342044;33;34799;-84
2022/05/26 06:22:49;;;;;;;;;;;;;;;19.48;51.98;100137.69;4342757;32;34220;-85
2022/05/26 06:25:18;;;;;;;;;;;;;;;19.91;51.74;100142.88;4341456;32;34232;-85
2022/05/26 06:30:35;;;;;;;;;;;;;;;19.89;51.22;100144.75;4341793;33;33855;-84
2022/05/26 06:38:37;;;;;;;;;;;;;;;19.80;51.00;100172.31;4353801;32;33022;-85
2022/05/26 06:43:51;;;;;;;;;;;;;;;19.83;51.19;100169.53;4355605;32;35055;-84
2022/05/26 06:46:20;;;;;;;;;;;;;;;19.99;50.42;100177.62;4333604;32;918355;-84
2022/05/26 06:48:48;;;;;;;;;;;;;;;19.99;50.82;100172.37;4356535;32;33272;-84
2022/05/26 06:51:17;;;;;;;;;;;;;;;20.30;49.14;100171.84;4356715;32;34971;-85
2022/05/26 06:53:46;;;;;;;;;;;;;;;19.98;51.27;100160.09;4356354;32;34780;-84
2022/05/26 06:56:15;;;;;;;;;;;;;;;20.12;51.57;100168.25;4356303;32;33656;-85
2022/05/26 06:58:44;;;;;;;;;;;;;;;20.30;51.90;100165.72;4361557;32;33599;-84
2022/05/26 07:01:16;;;;;;;;;;;;;;;20.08;52.74;100171.09;4356734;32;34003;-84
2022/05/26 07:03:45;;;;;;;;;;;;;;;20.36;51.96;100170.69;4357908;32;34243;-85
2022/05/26 07:06:14;;;;;;;;;;;;;;;20.40;51.48;100159.09;4356268;32;34575;-85
2022/05/26 07:08:43;;;;;;;;;;;;;;;20.30;51.52;100160.47;4356230;32;33457;-85
2022/05/26 07:11:11;;;;;;;;;;;;;;;20.49;51.22;100158.69;4356028;32;33916;-86
2022/05/26 07:13:40;;;;;;;;;;;;;;;20.45;50.53;100152.69;4361812;32;33900;-85
2022/05/26 07:16:10;;;;;;;;;;;;;;;20.63;50.42;100153.66;4349075;32;34424;-85
2022/05/26 07:18:40;;;;;;;;;;;;;;;20.86;50.84;100168.34;4346355;32;33343;-85
2022/05/26 07:21:11;;;;;;;;;;;;;;;20.78;50.95;100165.25;4355653;32;34206;-85
2022/05/26 07:23:41;;;;;;;;;;;;;;;20.95;49.89;100174.09;4361512;32;34277;-84
2022/05/26 07:26:10;;;;;;;;;;;;;;;20.92;51.45;100171.63;4344489;32;34137;-85
2022/05/26 07:28:40;;;;;;;;;;;;;;;20.94;51.77;100167.97;4354710;32;32826;-85
2022/05/26 07:31:08;;;;;;;;;;;;;;;21.16;50.24;100170.41;4349278;32;34070;-84
2022/05/26 07:33:37;;;;;;;;;;;;;;;21.17;50.44;100177.41;4348629;32;32647;-85
2022/05/26 07:36:08;;;;;;;;;;;;;;;21.18;49.91;100176.47;4353556;32;34755;-84
2022/05/26 07:41:23;;;;;;;;;;;;;;;21.39;49.07;100185.16;4355067;32;35076;-85
2022/05/26 07:43:54;;;;;;;;;;;;;;;21.45;47.39;100178.69;4353758;32;34806;-84
2022/05/26 07:46:23;;;;;;;;;;;;;;;21.35;49.73;100182.72;4354988;32;35046;-86
2022/05/26 07:48:52;;;;;;;;;;;;;;;21.36;49.64;100189.69;4357563;32;33256;-86
2022/05/26 07:51:22;;;;;;;;;;;;;;;21.37;49.71;100186.13;4362504;32;33634;-84
2022/05/26 07:53:51;;;;;;;;;;;;;;;21.26;48.92;100187.53;4361383;32;33122;-86
2022/05/26 07:56:20;;;;;;;;;;;;;;;21.47;48.68;100190.88;4355803;32;34798;-84
2022/05/26 07:58:48;;;;;;;;;;;;;;;21.74;49.41;100185.13;4352348;32;33025;-84
2022/05/26 08:01:17;;;;;;;;;;;;;;;21.66;50.21;100188.19;4358167;32;34151;-85
2022/05/26 08:03:53;;;;;;;;;;;;;;;21.54;48.81;100198.50;4358056;32;35688;-86
2022/05/26 08:06:23;;;;;;;;;;;;;;;21.55;49.25;100202.84;4362770;32;33741;-85
2022/05/26 08:08:52;;;;;;;;;;;;;;;21.49;48.92;100199.59;4356933;32;33268;-85
2022/05/26 08:11:20;;;;;;;;;;;;;;;21.41;49.47;100191.22;4354899;32;34087;-86
2022/05/26 08:13:48;;;;;;;;;;;;;;;21.56;50.06;100192.22;4357076;32;34641;-85
2022/05/26 08:16:18;;;;;;;;;;;;;;;22.13;46.77;100181.34;4355073;32;33985;-86
2022/05/26 08:18:46;;;;;;;;;;;;;;;21.89;47.39;100188.75;4360478;32;33839;-85
2022/05/26 08:21:17;;;;;;;;;;;;;;;21.93;48.03;100177.97;4357380;32;34957;-84
2022/05/26 08:23:47;;;;;;;;;;;;;;;22.15;46.13;100187.41;4358131;32;33669;-85
2022/05/26 08:26:16;;;;;;;;;;;;;;;21.92;46.67;100191.28;4357547;32;34622;-86
2022/05/26 08:28:44;;;;;;;;;;;;;;;21.97;46.01;100183.94;4356870;32;33948;-86
2022/05/26 08:31:14;;;;;;;;;;;;;;;22.05;46.57;100186.19;4361006;32;33580;-85
2022/05/26 08:33:43;;;;;;;;;;;;;;;22.01;44.75;100192.56;4361434;32;34699;-84
2022/05/26 08:36:14;;;;;;;;;;;;;;;21.76;45.22;100195.63;4357419;32;34382;-86
2022/05/26 08:38:43;;;;;;;;;;;;;;;21.71;46.95;100194.06;4356875;32;33325;-85
2022/05/26 08:41:16;;;;;;;;;;;;;;;22.11;45.51;100188.50;4357679;32;34155;-85
2022/05/26 08:43:45;;;;;;;;;;;;;;;21.96;45.43;100198.06;4357828;32;34932;-86
2022/05/26 08:46:17;;;;;;;;;;;;;;;22.17;44.79;100190.81;4359604;32;34904;-86
2022/05/26 08:48:49;;;;;;;;;;;;;;;22.20;45.15;100197.72;4349174;32;33682;-86
2022/05/26 08:51:20;;;;;;;;;;;;;;;22.30;43.92;100197.19;4348490;32;33818;-84
2022/05/26 08:53:48;;;;;;;;;;;;;;;22.32;45.77;100189.16;4353108;32;34328;-86
2022/05/26 08:56:19;;;;;;;;;;;;;;;22.67;44.82;100191.69;4357399;32;34640;-85
2022/05/26 08:58:48;;;;;;;;;;;;;;;22.61;43.78;100187.56;4362511;32;32724;-86
2022/05/26 09:01:21;;;;;;;;;;;;;;;22.80;43.45;100190.91;4355538;32;34496;-84
2022/05/26 09:03:52;;;;;;;;;;;;;;;23.04;43.83;100197.59;4357453;32;34233;-85
2022/05/26 09:06:22;;;;;;;;;;;;;;;23.05;43.03;100192.22;4356896;32;34039;-86
2022/05/26 09:14:25;;;;;;;;;;;;;;;22.78;41.98;100194.56;4361213;32;34962;-86
2022/05/26 09:16:56;;;;;;;;;;;;;;;22.82;42.90;100195.28;4356842;32;34227;-86
2022/05/26 09:19:25;;;;;;;;;;;;;;;23.15;42.79;100201.34;4357065;32;33475;-87
2022/05/26 09:21:55;;;;;;;;;;;;;;;23.17;43.10;100195.94;4357238;32;34325;-85
2022/05/26 09:24:26;;;;;;;;;;;;;;;23.24;40.62;100205.22;4352927;32;34228;-85
2022/05/26 09:26:58;;;;;;;;;;;;;;;23.17;39.73;100203.88;4357664;32;34998;-85
2022/05/26 09:29:27;;;;;;;;;;;;;;;23.24;40.36;100197.28;4363018;32;34228;-85
2022/05/26 09:31:56;;;;;;;;;;;;;;;23.14;40.07;100201.41;4356533;32;33913;-87
2022/05/26 09:34:45;;;;;;;;;;;;;;;23.49;37.46;100195.88;4357218;32;34173;-87
2022/05/26 09:37:13;;;;;;;;;;;;;;;23.27;38.20;100189.19;4356157;32;34668;-86
2022/05/26 09:39:43;;;;;;;;;;;;;;;23.68;37.44;100190.31;4345080;32;33457;-86
2022/05/26 09:42:26;;;;;;;;;;;;;;;23.95;38.79;100183.41;4347801;33;34506;-86
2022/05/26 09:44:54;;;;;;;;;;;;;;;24.06;39.03;100188.03;4355573;32;34967;-86
2022/05/26 09:47:24;;;;;;;;;;;;;;;24.39;40.11;100186.91;4356850;32;34077;-86
2022/05/26 09:49:54;;;;;;;;;;;;;;;24.19;39.65;100193.47;4357075;32;32447;-85
2022/05/26 09:52:23;;;;;;;;;;;;;;;24.27;38.18;100191.19;4356808;32;34133;-85
2022/05/26 09:55:05;;;;;;;;;;;;;;;24.06;37.89;100188.88;4357184;32;34950;-86
2022/05/26 09:57:35;;;;;;;;;;;;;;;24.40;37.24;100188.59;4359022;32;34892;-86
2022/05/26 10:00:10;;;;;;;;;;;;;;;24.59;36.08;100189.16;4362618;32;33480;-85
2022/05/26 10:02:40;;;;;;;;;;;;;;;24.69;35.21;100185.00;4354803;32;33983;-86
2022/05/26 10:05:10;;;;;;;;;;;;;;;24.91;34.42;100183.59;4356629;32;34255;-85
2022/05/26 10:07:52;;;;;;;;;;;;;;;25.18;34.44;100186.28;4355301;32;33249;-86
2022/05/26 10:10:22;;;;;;;;;;;;;;;25.44;33.98;100189.87;4355841;32;34094;-86
2022/05/26 10:12:54;;;;;;;;;;;;;;;25.15;33.83;100193.56;4360721;32;32674;-86
2022/05/26 10:15:25;;;;;;;;;;;;;;;25.27;33.32;100185.69;4360075;32;34099;-86
2022/05/26 10:18:03;;;;;;;;;;;;;;;25.26;34.57;100188.44;4349687;32;33597;-86
2022/05/26 10:20:37;;;;;;;;;;;;;;;25.28;33.27;100187.38;4352313;32;33523;-87
2022/05/26 10:23:14;;;;;;;;;;;;;;;25.25;32.15;100184.94;4355152;32;33776;-88
2022/05/26 10:25:44;;;;;;;;;;;;;;;25.25;31.42;100205.31;4351368;32;34909;-87
2022/05/26 10:28:21;;;;;;;;;;;;;;;25.28;31.79;100187.38;4361626;32;34011;-87
2022/05/26 10:30:52;;;;;;;;;;;;;;;25.59;28.56;100189.75;4355233;32;33268;-86
2022/05/26 10:33:25;;;;;;;;;;;;;;;25.59;29.13;100187.09;4356490;32;33632;-86
2022/05/26 10:35:58;;;;;;;;;;;;;;;25.79;29.77;100175.97;4357334;32;34358;-86
2022/05/26 10:38:39;;;;;;;;;;;;;;;26.16;28.87;100176.09;4356791;32;33959;-85
2022/05/26 10:41:11;;;;;;;;;;;;;;;25.92;27.60;100186.66;4354803;32;33072;-86
2022/05/26 10:43:42;;;;;;;;;;;;;;;25.45;28.76;100191.56;4361329;32;34236;-86
2022/05/26 10:46:12;;;;;;;;;;;;;;;25.63;27.05;100184.13;4356445;32;33701;-85
2022/05/26 10:48:41;;;;;;;;;;;;;;;25.90;28.89;100183.22;4354964;32;34067;-87
2022/05/26 10:51:10;;;;;;;;;;;;;;;26.00;28.93;100186.09;4355865;32;33924;-86
2022/05/26 10:53:41;;;;;;;;;;;;;;;26.21;29.51;100179.28;4355898;32;34953;-87
2022/05/26 10:56:11;;;;;;;;;;;;;;;26.43;30.15;100181.25;4361407;32;33749;-85
2022/05/26 10:58:44;;;;;;;;;;;;;;;26.46;29.10;100185.50;4361603;32;34636;-87
2022/05/26 11:01:15;;;;;;;;;;;;;;;26.36;29.76;100177.34;4354105;32;33497;-87
2022/05/26 11:03:45;;;;;;;;;;;;;;;26.52;29.45;100177.09;4355936;32;33950;-88
2022/05/26 11:06:17;;;;;;;;;;;;;;;26.74;29.67;100181.75;4357966;32;33647;-86
2022/05/26 11:08:47;;;;;;;;;;;;;;;27.04;30.21;100184.00;4354913;32;34380;-87
2022/05/26 11:11:19;;;;;;;;;;;;;;;27.01;28.78;100176.22;4357247;32;33662;-88
2022/05/26 11:13:53;;;;;;;;;;;;;;;27.14;29.03;100179.66;4352190;32;33766;-85
2022/05/26 11:19:15;;;;;;;;;;;;;;;26.59;29.53;100159.78;4350384;32;32157;-87
2022/05/26 11:21:43;;;;;;;;;;;;;;;26.37;31.01;100165.75;4357541;32;33944;-88
2022/05/26 11:24:12;;;;;;;;;;;;;;;26.35;29.84;100160.53;4353858;32;34174;-86
2022/05/26 11:26:42;;;;;;;;;;;;;;;26.34;29.52;100164.16;4351565;32;35028;-85
2022/05/26 11:29:13;;;;;;;;;;;;;;;26.34;28.37;100155.34;4353073;32;34060;-86
2022/05/26 11:37:28;;;;;;;;;;;;;;;26.94;30.47;100157.19;4343201;33;34134;-86
2022/05/26 11:39:57;;;;;;;;;;;;;;;26.56;30.12;100152.00;4346318;32;33797;-86
2022/05/26 11:42:28;;;;;;;;;;;;;;;26.46;30.57;100142.94;4349011;32;33203;-86
2022/05/26 11:45:11;;;;;;;;;;;;;;;26.83;30.72;100148.31;4348991;33;33655;-88
2022/05/26 11:47:49;;;;;;;;;;;;;;;27.10;28.50;100154.22;4345633;33;34815;-87
2022/05/26 11:50:28;;;;;;;;;;;;;;;27.35;29.13;100153.28;4346173;32;34023;-85
2022/05/26 11:53:07;;;;;;;;;;;;;;;27.43;28.21;100145.53;4357535;32;32312;-86
2022/05/26 11:55:49;;;;;;;;;;;;;;;27.38;28.19;100149.53;4357942;32;35058;-86
2022/05/26 11:58:44;;;;;;;;;;;;;;;27.02;28.13;100140.66;4357895;32;34430;-87
2022/05/26 12:01:31;;;;;;;;;;;;;;;26.81;28.59;100137.75;4347499;32;34225;-85
2022/05/26 12:04:18;;;;;;;;;;;;;;;26.48;28.60;100133.91;4359143;32;34183;-86
2022/05/26 12:06:55;;;;;;;;;;;;;;;26.15;29.19;100142.50;4361151;32;34187;-88
2022/05/26 12:09:32;;;;;;;;;;;;;;;26.49;29.10;100126.78;4356589;32;35002;-87
2022/05/26 12:12:01;;;;;;;;;;;;;;;26.90;28.93;100125.59;4356801;32;33627;-87
2022/05/26 12:14:31;;;;;;;;;;;;;;;27.37;28.10;100110.50;4346342;32;32940;-86
2022/05/26 12:17:21;;;;;;;;;;;;;;;27.47;28.76;100113.31;4353245;32;35991;-86
2022/05/26 12:19:50;;;;;;;;;;;;;;;27.11;27.97;100107.12;4353814;32;35033;-86
2022/05/26 12:22:24;;;;;;;;;;;;;;;26.74;28.71;100105.41;4358795;32;34638;-89
2022/05/26 12:25:07;;;;;;;;;;;;;;;26.47;30.16;100097.63;4361988;32;33429;-86
2022/05/26 12:28:03;;;;;;;;;;;;;;;26.21;30.28;100104.81;4356872;32;34078;-87
2022/05/26 12:30:42;;;;;;;;;;;;;;;26.42;30.48;100104.25;4310067;33;33398;-86
2022/05/26 12:33:19;;;;;;;;;;;;;;;26.81;29.89;100106.66;4311551;33;32134;-86
2022/05/26 12:35:49;;;;;;;;;;;;;;;26.79;30.28;100107.72;4323351;33;34166;-84
2022/05/26 12:38:23;;;;;;;;;;;;;;;26.57;29.25;100101.31;4324655;33;34665;-84
2022/05/26 12:40:54;;;;;;;;;;;;;;;26.34;29.40;100095.00;4323917;33;33693;-87
2022/05/26 12:43:27;;;;;;;;;;;;;;;26.53;30.01;100094.56;4322123;33;34477;-85
2022/05/26 12:45:58;;;;;;;;;;;;;;;26.54;30.13;100095.41;4325054;33;32958;-89
2022/05/26 12:48:51;;;;;;;;;;;;;;;26.84;29.48;100100.25;4324088;33;33601;-85
2022/05/26 12:51:20;;;;;;;;;;;;;;;26.90;29.26;100109.59;4321957;33;34960;-86
2022/05/26 12:53:52;;;;;;;;;;;;;;;26.94;29.71;100101.28;4324020;33;34402;-87
2022/05/26 12:56:24;;;;;;;;;;;;;;;26.74;29.92;100104.56;4330137;33;33396;-86
2022/05/26 12:58:54;;;;;;;;;;;;;;;26.67;29.39;100095.34;4324480;33;33733;-89
2022/05/26 13:01:24;;;;;;;;;;;;;;;26.79;30.00;100102.41;4324057;33;33866;-88
2022/05/26 13:03:57;;;;;;;;;;;;;;;27.35;28.98;100093.78;4323738;33;34121;-87
2022/05/26 13:06:28;;;;;;;;;;;;;;;27.61;28.45;100089.94;4337564;32;34227;-86
2022/05/26 13:09:00;;;;;;;;;;;;;;;27.71;27.22;100084.75;4359739;32;33391;-86
2022/05/26 13:11:32;;;;;;;;;;;;;;;27.89;28.42;100084.31;4359519;32;35194;-86
2022/05/26 13:14:01;;;;;;;;;;;;;;;28.12;27.96;100083.31;4356410;32;34105;-85
2022/05/26 13:16:31;;;;;;;;;;;;;;;27.94;27.54;100080.31;4356657;32;33186;-84
2022/05/26 13:19:07;;;;;;;;;;;;;;;28.52;27.86;100076.59;4356246;32;34639;-86
2022/05/26 13:21:36;;;;;;;;;;;;;;;29.07;26.53;100080.06;4346223;32;35753;-86
2022/05/26 13:24:08;;;;;;;;;;;;;;;29.42;26.25;100076.19;4361046;32;33844;-87
2022/05/26 13:26:36;;;;;;;;;;;;;;;29.72;24.94;100075.38;4352218;32;32193;-85
2022/05/26 13:29:05;;;;;;;;;;;;;;;28.73;25.36;100077.50;4352345;32;34229;-88
2022/05/26 13:34:20;;;;;;;;;;;;;;;27.69;27.08;100077.84;4353221;32;34217;-86
2022/05/26 13:36:49;;;;;;;;;;;;;;;27.38;27.88;100064.25;4359742;32;33119;-89